Pagrindinis puslapis
METAR-TAF:

METAR-TAF

Oro uostai :

Berlynas, Vokietija

platuma: 52-34N, ilguma: 013-19E, Aukštis: 37 m

Dabartinis oras

Ataskaita buvo paskelbta 22 minutes, ne 22:50 UTC
Vėjas 3 kt iš Vakarų, svyruoja nuo Pietvakarių ir Vakarų/Šiaurės Vakarų
Temperatūra 11°C
Drėgmė 82%
Slėgis 1025 hPa
Matomumas 10 km arba daugiau
Su prošvaistėmis ne aukštis 4100 ft

METAR: EDDT 202250Z 26003KT 230V300 9999 BKN041 11/08 Q1025

Laikas: 01:12 (23:12 UTC)

Prognozė

Ataskaita buvo paskelbta 6 valandos ir 12 minutes, ne 17:00 UTC
Prognozė galioja nuo 20 metu 18 UTC su 21 metu 18 UTC
Vėjas 4 kt iš Vakarų/Pietvakarių
Matomumas 10 km arba daugiau
Išsisklaidę debesys ne aukštis 4500 ft

TAF: EDDT 201700Z 2018/2118 25004KT 9999 SCT045

Orai ataskaitas ir orų prognozės (METAR, TAF).

turimą stotys yra geltonos ir raudonos taškus žemėlapyje.

Perkelti pele per norėdami pamatyti stoties vardą.

Tada spustelėkite, norėdami matyti oro stebėjimo ir prognozės.

Norėdami pakeisti žemėlapį: spustelėkite ant žalios mygtukų su juodo kryžiaus žemyn,; žalią mygtuką su brūkšneliu, jei norite nutolinti; arba žalių rodyklių gretimoms žemėlapius.


METAR-TAF: